Time;durP1;ratioP1;P1;durP2;ratioP2;P2;SDS_P1;SDS_P2;PMS_P1;PMS_P2;Temp;Humidity;BMP_temperature;BMP_pressure;BME280_temperature;BME280_humidity;BME280_pressure;Samples;Min_cycle;Max_cycle;Signal;HPM_P1;HPM_P2
2023/03/14 00:00:32;;;;;;;0.90;0.40;;;;;;;;;;5072608;28;20384;-84
2023/03/14 00:02:58;;;;;;;0.70;0.50;;;;;;;;;;5071608;28;20375;-84
2023/03/14 00:05:24;;;;;;;0.90;0.40;;;;;;;;;;5072515;28;20805;-83
2023/03/14 00:07:50;;;;;;;0.45;0.30;;;;;;;;;;5072302;28;20379;-83
2023/03/14 00:10:16;;;;;;;0.60;0.40;;;;;;;;;;5072379;28;20390;-83
2023/03/14 00:12:42;;;;;;;1.45;0.40;;;;;;;;;;5072495;28;20410;-83
2023/03/14 00:15:09;;;;;;;1.27;0.40;;;;;;;;;;5072324;28;20412;-83
2023/03/14 00:17:36;;;;;;;1.33;0.80;;;;;;;;;;5071746;28;20423;-83
2023/03/14 00:20:04;;;;;;;1.45;0.70;;;;;;;;;;5072275;28;20376;-84
2023/03/14 00:22:31;;;;;;;2.33;1.40;;;;;;;;;;5084118;28;20376;-84
2023/03/14 00:24:57;;;;;;;3.58;1.52;;;;;;;;;;5062117;28;20877;-84
2023/03/14 00:27:23;;;;;;;5.25;3.03;;;;;;;;;;5072142;28;20388;-83
2023/03/14 00:29:49;;;;;;;3.23;1.73;;;;;;;;;;5072051;28;20388;-84
2023/03/14 00:32:15;;;;;;;2.08;1.35;;;;;;;;;;5072113;28;20449;-83
2023/03/14 00:34:41;;;;;;;0.80;0.50;;;;;;;;;;5071869;28;20383;-84
2023/03/14 00:37:07;;;;;;;0.60;0.53;;;;;;;;;;5071908;28;20407;-84
2023/03/14 00:39:33;;;;;;;0.80;0.47;;;;;;;;;;5071951;28;20368;-83
2023/03/14 00:41:59;;;;;;;0.40;0.40;;;;;;;;;;5071765;28;20390;-84
2023/03/14 00:44:25;;;;;;;1.00;0.40;;;;;;;;;;5071851;28;20384;-84
2023/03/14 00:46:51;;;;;;;0.50;0.30;;;;;;;;;;5071668;28;20503;-84
2023/03/14 00:49:17;;;;;;;0.40;0.25;;;;;;;;;;5071771;28;20908;-84
2023/03/14 00:51:43;;;;;;;0.20;0.20;;;;;;;;;;5071670;28;20393;-84
2023/03/14 00:54:09;;;;;;;0.50;0.30;;;;;;;;;;5093516;22;20431;-84
2023/03/14 00:56:35;;;;;;;0.40;0.28;;;;;;;;;;5071476;28;20461;-84
2023/03/14 00:59:01;;;;;;;0.55;0.30;;;;;;;;;;5057715;28;20390;-84
2023/03/14 01:01:27;;;;;;;0.55;0.30;;;;;;;;;;5053878;28;20376;-84
2023/03/14 01:03:53;;;;;;;0.85;0.40;;;;;;;;;;5053810;28;20387;-84
2023/03/14 01:06:21;;;;;;;0.82;0.50;;;;;;;;;;5071705;28;20418;-83
2023/03/14 01:08:47;;;;;;;0.40;0.32;;;;;;;;;;5071364;28;20391;-82
2023/03/14 01:11:18;;;;;;;1.17;0.30;;;;;;;;;;5071629;28;20383;-82
2023/03/14 01:13:44;;;;;;;0.60;0.20;;;;;;;;;;5071390;28;20429;-83
2023/03/14 01:16:10;;;;;;;0.30;0.20;;;;;;;;;;5071178;28;20403;-82
2023/03/14 01:18:37;;;;;;;0.28;0.20;;;;;;;;;;5071203;28;20737;-82
2023/03/14 01:21:04;;;;;;;0.32;0.20;;;;;;;;;;5067581;28;20458;-83
2023/03/14 01:23:30;;;;;;;0.60;0.20;;;;;;;;;;5071339;28;20388;-83
2023/03/14 01:25:56;;;;;;;0.60;0.30;;;;;;;;;;5071162;28;20376;-83
2023/03/14 01:28:22;;;;;;;0.50;0.10;;;;;;;;;;5067074;28;20379;-83
2023/03/14 01:30:48;;;;;;;0.30;0.22;;;;;;;;;;5071402;28;20781;-83
2023/03/14 01:33:14;;;;;;;0.20;0.20;;;;;;;;;;5071571;28;20387;-83
2023/03/14 01:35:40;;;;;;;0.38;0.25;;;;;;;;;;5071142;28;20379;-83
2023/03/14 01:38:06;;;;;;;0.60;0.20;;;;;;;;;;5071068;28;20376;-82
2023/03/14 01:40:32;;;;;;;0.25;0.10;;;;;;;;;;5071358;28;20384;-83
2023/03/14 01:43:05;;;;;;;0.37;0.27;;;;;;;;;;5071388;28;20433;-82
2023/03/14 01:45:50;;;;;;;0.20;0.10;;;;;;;;;;5071293;28;20379;-82
2023/03/14 01:48:16;;;;;;;0.20;0.10;;;;;;;;;;5066935;28;20396;-82
2023/03/14 01:50:42;;;;;;;0.20;0.20;;;;;;;;;;5071137;28;20398;-83
2023/03/14 01:53:08;;;;;;;0.60;0.13;;;;;;;;;;5071250;28;20380;-83
2023/03/14 01:55:34;;;;;;;0.10;0.10;;;;;;;;;;5070709;28;20443;-82
2023/03/14 01:58:03;;;;;;;0.60;0.20;;;;;;;;;;5071092;28;20427;-82
2023/03/14 02:00:29;;;;;;;0.35;0.20;;;;;;;;;;5070924;28;20379;-82
2023/03/14 02:03:16;;;;;;;0.20;0.10;;;;;;;;;;5071122;28;20371;-83
2023/03/14 02:05:42;;;;;;;0.50;0.10;;;;;;;;;;5070824;28;20749;-82
2023/03/14 02:08:14;;;;;;;0.10;0.10;;;;;;;;;;5070923;28;20380;-83
2023/03/14 02:10:42;;;;;;;0.10;0.10;;;;;;;;;;5070950;28;21039;-82
2023/03/14 02:13:08;;;;;;;0.13;0.13;;;;;;;;;;5062800;28;20378;-83
2023/03/14 02:15:34;;;;;;;0.20;0.20;;;;;;;;;;5066189;28;20889;-83
2023/03/14 02:18:02;;;;;;;0.10;0.10;;;;;;;;;;5071024;28;20410;-83
2023/03/14 02:20:31;;;;;;;0.50;0.10;;;;;;;;;;5071010;28;20990;-82
2023/03/14 02:22:57;;;;;;;2.20;0.10;;;;;;;;;;5070846;28;20391;-83
2023/03/14 02:25:26;;;;;;;0.38;0.05;;;;;;;;;;5064687;28;20377;-83
2023/03/14 02:27:52;;;;;;;0.20;0.10;;;;;;;;;;5070380;28;20466;-83
2023/03/14 02:30:20;;;;;;;0.20;0.10;;;;;;;;;;5067511;28;20380;-83
2023/03/14 02:32:52;;;;;;;1.50;0.10;;;;;;;;;;5066784;28;20377;-82
2023/03/14 02:35:20;;;;;;;0.15;0.08;;;;;;;;;;5064731;28;20823;-83
2023/03/14 02:37:52;;;;;;;0.20;0.20;;;;;;;;;;5071818;28;20511;-83
2023/03/14 02:40:18;;;;;;;0.10;0.10;;;;;;;;;;5074593;28;20752;-83
2023/03/14 02:42:44;;;;;;;0.40;0.10;;;;;;;;;;5069927;28;20905;-83
2023/03/14 02:45:10;;;;;;;0.20;0.20;;;;;;;;;;5065291;28;20394;-83
2023/03/14 02:47:42;;;;;;;0.10;0.10;;;;;;;;;;5063642;28;20397;-83
2023/03/14 02:50:10;;;;;;;0.30;0.22;;;;;;;;;;5062305;28;20392;-83
2023/03/14 02:52:36;;;;;;;1.05;0.70;;;;;;;;;;5059241;28;20400;-83
2023/03/14 02:55:03;;;;;;;1.00;0.60;;;;;;;;;;5057830;28;20401;-83
2023/03/14 02:57:29;;;;;;;1.77;1.48;;;;;;;;;;5069148;28;20403;-84
2023/03/14 02:59:58;;;;;;;0.75;0.55;;;;;;;;;;5072713;28;20387;-84
2023/03/14 03:02:24;;;;;;;0.82;0.50;;;;;;;;;;5072119;28;20379;-83
2023/03/14 03:04:50;;;;;;;0.75;0.65;;;;;;;;;;5071988;28;20388;-84
2023/03/14 03:07:16;;;;;;;0.60;0.60;;;;;;;;;;5071945;28;20521;-84
2023/03/14 03:09:42;;;;;;;0.55;0.40;;;;;;;;;;5072230;28;20376;-83
2023/03/14 03:12:08;;;;;;;0.60;0.50;;;;;;;;;;5071813;28;20898;-84
2023/03/14 03:14:34;;;;;;;0.32;0.30;;;;;;;;;;5067786;28;20399;-84
2023/03/14 03:17:00;;;;;;;1.60;0.90;;;;;;;;;;5064816;28;20434;-83
2023/03/14 03:19:26;;;;;;;0.60;0.40;;;;;;;;;;5080261;28;20403;-83
2023/03/14 03:21:52;;;;;;;0.35;0.30;;;;;;;;;;5073876;28;20470;-84
2023/03/14 03:24:18;;;;;;;0.30;0.20;;;;;;;;;;5075599;28;20372;-84
2023/03/14 03:26:44;;;;;;;0.63;0.30;;;;;;;;;;5074643;28;20923;-84
2023/03/14 03:29:10;;;;;;;0.95;0.40;;;;;;;;;;5073899;28;20391;-84
2023/03/14 03:31:37;;;;;;;1.25;0.80;;;;;;;;;;5073723;28;20411;-84
2023/03/14 03:34:03;;;;;;;0.50;0.40;;;;;;;;;;5073503;28;20375;-84
2023/03/14 03:36:29;;;;;;;0.30;0.20;;;;;;;;;;5073178;28;20426;-84
2023/03/14 03:38:55;;;;;;;0.20;0.20;;;;;;;;;;5073638;28;20382;-83
2023/03/14 03:41:21;;;;;;;0.20;0.20;;;;;;;;;;5073363;28;20740;-84
2023/03/14 03:43:47;;;;;;;0.30;0.20;;;;;;;;;;5072980;28;20378;-84
2023/03/14 03:46:14;;;;;;;0.20;0.20;;;;;;;;;;5073577;28;20465;-83
2023/03/14 03:48:40;;;;;;;1.33;0.40;;;;;;;;;;5073177;28;20742;-83
2023/03/14 03:51:07;;;;;;;0.20;0.10;;;;;;;;;;5073242;28;20737;-84
2023/03/14 03:53:32;;;;;;;0.28;0.17;;;;;;;;;;5071618;28;20391;-84
2023/03/14 03:55:58;;;;;;;0.40;0.20;;;;;;;;;;5071619;28;20462;-83
2023/03/14 03:58:24;;;;;;;0.20;0.20;;;;;;;;;;5053467;28;21180;-84
2023/03/14 04:00:50;;;;;;;0.17;0.17;;;;;;;;;;5072065;28;20384;-83
2023/03/14 04:03:16;;;;;;;0.13;0.10;;;;;;;;;;5072803;28;20725;-84
2023/03/14 04:05:42;;;;;;;0.20;0.20;;;;;;;;;;5073259;28;20376;-83
2023/03/14 04:08:08;;;;;;;0.45;0.20;;;;;;;;;;5073481;28;20382;-83
2023/03/14 04:10:36;;;;;;;0.10;0.10;;;;;;;;;;5072975;28;20455;-84
2023/03/14 04:13:02;;;;;;;1.15;0.47;;;;;;;;;;5072977;28;20379;-83
2023/03/14 04:15:27;;;;;;;0.20;0.20;;;;;;;;;;5072587;28;20368;-84
2023/03/14 04:17:57;;;;;;;0.10;0.10;;;;;;;;;;5072474;28;20766;-84
2023/03/14 04:20:23;;;;;;;0.85;0.15;;;;;;;;;;5068774;28;20429;-84
2023/03/14 04:22:49;;;;;;;0.20;0.10;;;;;;;;;;5072262;28;20478;-84
2023/03/14 04:25:17;;;;;;;0.10;0.10;;;;;;;;;;5072654;28;20387;-84
2023/03/14 04:27:43;;;;;;;0.10;0.10;;;;;;;;;;5072532;28;20379;-84
2023/03/14 04:30:09;;;;;;;0.20;0.10;;;;;;;;;;5072251;28;20383;-84
2023/03/14 04:32:35;;;;;;;0.20;0.20;;;;;;;;;;5072210;28;20484;-84
2023/03/14 04:35:01;;;;;;;0.00;0.00;;;;;;;;;;5072235;28;20849;-84
2023/03/14 04:37:27;;;;;;;0.20;0.20;;;;;;;;;;5072125;28;20410;-83
2023/03/14 04:39:53;;;;;;;0.40;0.20;;;;;;;;;;5083065;28;20377;-84
2023/03/14 04:42:19;;;;;;;0.17;0.10;;;;;;;;;;5072236;28;20458;-84
2023/03/14 04:44:46;;;;;;;0.28;0.20;;;;;;;;;;5071815;28;20380;-84
2023/03/14 04:47:12;;;;;;;0.70;0.20;;;;;;;;;;5071651;28;20380;-83
2023/03/14 04:49:38;;;;;;;0.30;0.10;;;;;;;;;;5071812;28;20453;-84
2023/03/14 04:52:04;;;;;;;0.10;0.10;;;;;;;;;;5071935;28;20380;-84
2023/03/14 04:54:30;;;;;;;0.15;0.10;;;;;;;;;;5069724;28;20431;-83
2023/03/14 04:56:56;;;;;;;0.20;0.20;;;;;;;;;;5058197;28;20399;-84
2023/03/14 04:59:22;;;;;;;0.30;0.10;;;;;;;;;;5071604;28;20382;-84
2023/03/14 05:01:49;;;;;;;0.28;0.20;;;;;;;;;;5052467;28;20377;-84
2023/03/14 05:04:15;;;;;;;0.10;0.10;;;;;;;;;;5070762;28;20430;-84
2023/03/14 05:06:42;;;;;;;0.70;0.10;;;;;;;;;;5071788;28;20380;-84
2023/03/14 05:09:08;;;;;;;2.47;1.57;;;;;;;;;;5070197;28;20522;-84
2023/03/14 05:11:34;;;;;;;0.10;0.10;;;;;;;;;;5071422;28;20391;-83
2023/03/14 05:14:00;;;;;;;0.55;0.28;;;;;;;;;;5071562;28;20387;-84
2023/03/14 05:16:26;;;;;;;0.40;0.10;;;;;;;;;;5071220;28;20450;-84
2023/03/14 05:18:52;;;;;;;0.40;0.13;;;;;;;;;;5071404;28;20386;-84
2023/03/14 05:21:18;;;;;;;0.10;0.10;;;;;;;;;;5053460;28;20396;-83
2023/03/14 05:23:44;;;;;;;0.40;0.20;;;;;;;;;;5071292;28;20391;-84
2023/03/14 05:26:10;;;;;;;1.13;0.20;;;;;;;;;;5071386;28;20391;-84
2023/03/14 05:28:36;;;;;;;0.55;0.15;;;;;;;;;;5068847;28;20749;-84
2023/03/14 05:31:06;;;;;;;0.20;0.17;;;;;;;;;;5071247;28;20483;-84
2023/03/14 05:33:32;;;;;;;0.80;0.20;;;;;;;;;;5071426;28;20386;-84
2023/03/14 05:35:58;;;;;;;0.22;0.20;;;;;;;;;;5071685;28;20807;-84
2023/03/14 05:38:24;;;;;;;0.22;0.20;;;;;;;;;;5071322;28;20396;-84
2023/03/14 05:40:50;;;;;;;0.52;0.13;;;;;;;;;;5071363;28;20387;-84
2023/03/14 05:43:16;;;;;;;0.32;0.10;;;;;;;;;;5071314;28;20737;-84
2023/03/14 05:45:43;;;;;;;0.70;0.25;;;;;;;;;;5070586;28;20387;-83
2023/03/14 05:48:09;;;;;;;0.30;0.20;;;;;;;;;;5068850;28;20376;-84
2023/03/14 05:50:35;;;;;;;0.75;0.20;;;;;;;;;;5071137;28;20380;-84
2023/03/14 05:53:01;;;;;;;1.13;0.20;;;;;;;;;;5070452;28;20384;-84
2023/03/14 05:55:27;;;;;;;0.20;0.20;;;;;;;;;;5070441;28;20406;-84
2023/03/14 05:57:53;;;;;;;0.50;0.30;;;;;;;;;;5071141;28;20445;-85
2023/03/14 06:00:20;;;;;;;1.10;0.10;;;;;;;;;;5073871;28;20421;-84
2023/03/14 06:02:46;;;;;;;0.90;0.25;;;;;;;;;;5075180;28;20727;-84
2023/03/14 06:05:12;;;;;;;0.20;0.20;;;;;;;;;;5074823;28;20379;-84
2023/03/14 06:07:38;;;;;;;0.15;0.10;;;;;;;;;;5075120;28;20391;-85
2023/03/14 06:10:04;;;;;;;0.20;0.20;;;;;;;;;;5074228;28;20391;-84
2023/03/14 06:12:30;;;;;;;0.55;0.20;;;;;;;;;;5066666;28;20395;-85
2023/03/14 06:14:56;;;;;;;0.30;0.20;;;;;;;;;;5072872;28;20441;-82
2023/03/14 06:17:22;;;;;;;0.20;0.20;;;;;;;;;;5072799;28;20407;-83
2023/03/14 06:19:48;;;;;;;0.20;0.20;;;;;;;;;;5073452;28;20379;-83
2023/03/14 06:22:14;;;;;;;0.20;0.20;;;;;;;;;;5072810;28;20780;-83
2023/03/14 06:24:40;;;;;;;0.20;0.20;;;;;;;;;;5069231;28;20474;-83
2023/03/14 06:27:06;;;;;;;0.45;0.20;;;;;;;;;;5072776;28;20933;-83
2023/03/14 06:29:32;;;;;;;0.20;0.10;;;;;;;;;;5074168;28;20384;-83
2023/03/14 06:31:58;;;;;;;0.32;0.20;;;;;;;;;;5074596;28;20386;-84
2023/03/14 06:34:24;;;;;;;0.57;0.30;;;;;;;;;;5075303;28;20749;-84
2023/03/14 06:36:50;;;;;;;0.50;0.30;;;;;;;;;;5076201;28;20434;-83
2023/03/14 06:39:16;;;;;;;0.40;0.20;;;;;;;;;;5077349;28;20860;-83
2023/03/14 06:41:42;;;;;;;1.15;0.13;;;;;;;;;;5087887;28;20412;-83
2023/03/14 06:44:08;;;;;;;0.30;0.30;;;;;;;;;;5087714;28;20372;-83
2023/03/14 06:46:34;;;;;;;0.70;0.50;;;;;;;;;;5087106;28;20387;-83
2023/03/14 06:49:00;;;;;;;0.90;0.43;;;;;;;;;;5083261;28;20387;-82
2023/03/14 06:51:26;;;;;;;0.70;0.50;;;;;;;;;;5074187;28;20860;-83
2023/03/14 06:53:51;;;;;;;0.88;0.70;;;;;;;;;;5074775;28;20462;-83
2023/03/14 06:56:17;;;;;;;1.50;0.80;;;;;;;;;;5074253;28;20403;-83
2023/03/14 06:58:44;;;;;;;1.03;0.80;;;;;;;;;;5074190;28;20399;-83
2023/03/14 07:01:24;;;;;;;0.82;0.50;;;;;;;;;;5073961;28;20888;-83
2023/03/14 07:03:50;;;;;;;1.60;0.80;;;;;;;;;;5063152;28;20391;-83
2023/03/14 07:06:16;;;;;;;0.93;0.40;;;;;;;;;;5074203;28;20737;-83
2023/03/14 07:08:42;;;;;;;1.27;0.40;;;;;;;;;;5074221;28;20379;-83
2023/03/14 07:11:10;;;;;;;1.00;0.32;;;;;;;;;;5073068;28;20778;-83
2023/03/14 07:13:36;;;;;;;1.27;0.40;;;;;;;;;;5068084;28;20660;-84
2023/03/14 07:16:02;;;;;;;0.70;0.40;;;;;;;;;;5073371;28;20384;-83
2023/03/14 07:18:28;;;;;;;0.40;0.30;;;;;;;;;;5073751;28;20382;-83
2023/03/14 07:20:54;;;;;;;0.50;0.30;;;;;;;;;;5072100;28;20375;-84
2023/03/14 07:23:20;;;;;;;1.70;0.40;;;;;;;;;;5067247;28;20865;-83
2023/03/14 07:25:46;;;;;;;0.73;0.30;;;;;;;;;;5073569;28;20457;-84
2023/03/14 07:28:12;;;;;;;1.20;0.30;;;;;;;;;;5072976;28;20387;-83
2023/03/14 07:30:38;;;;;;;0.77;0.30;;;;;;;;;;5072926;28;20427;-82
2023/03/14 07:33:04;;;;;;;0.30;0.30;;;;;;;;;;5072698;28;20386;-83
2023/03/14 07:35:30;;;;;;;0.60;0.30;;;;;;;;;;5070031;28;20445;-84
2023/03/14 07:37:56;;;;;;;1.05;0.30;;;;;;;;;;5072772;28;20490;-83
2023/03/14 07:40:22;;;;;;;2.22;0.30;;;;;;;;;;5073588;28;20710;-84
2023/03/14 07:42:49;;;;;;;1.60;0.40;;;;;;;;;;5073315;28;20384;-84
2023/03/14 07:45:15;;;;;;;0.40;0.30;;;;;;;;;;5072661;28;20412;-83
2023/03/14 07:47:41;;;;;;;0.50;0.40;;;;;;;;;;5072467;28;20783;-83
2023/03/14 07:50:07;;;;;;;0.27;0.20;;;;;;;;;;5073023;28;20387;-84
2023/03/14 07:52:33;;;;;;;0.98;0.20;;;;;;;;;;5073262;28;20380;-87
2023/03/14 07:54:59;;;;;;;0.38;0.22;;;;;;;;;;5072715;28;20472;-84
2023/03/14 07:57:25;;;;;;;0.30;0.20;;;;;;;;;;5072928;28;20412;-83
2023/03/14 07:59:51;;;;;;;0.80;0.60;;;;;;;;;;5073037;28;20375;-83
2023/03/14 08:02:20;;;;;;;1.13;0.40;;;;;;;;;;5072766;28;20428;-85
2023/03/14 08:04:46;;;;;;;0.65;0.30;;;;;;;;;;5072865;28;20408;-84
2023/03/14 08:07:12;;;;;;;0.88;0.30;;;;;;;;;;5072714;28;20406;-85
2023/03/14 08:09:38;;;;;;;0.45;0.32;;;;;;;;;;5072843;28;20852;-82
2023/03/14 08:12:04;;;;;;;0.70;0.40;;;;;;;;;;5072514;28;20380;-82
2023/03/14 08:14:30;;;;;;;0.93;0.43;;;;;;;;;;5064103;28;20374;-82
2023/03/14 08:16:57;;;;;;;1.15;0.60;;;;;;;;;;5066153;28;20400;-83
2023/03/14 08:19:23;;;;;;;1.40;0.43;;;;;;;;;;5072399;28;20380;-82
2023/03/14 08:21:49;;;;;;;0.63;0.32;;;;;;;;;;5072136;28;20372;-82
2023/03/14 08:24:15;;;;;;;1.20;0.32;;;;;;;;;;5070993;28;20933;-82
2023/03/14 08:26:40;;;;;;;1.58;0.35;;;;;;;;;;5071334;28;20380;-83
2023/03/14 08:29:07;;;;;;;1.10;0.30;;;;;;;;;;5071607;28;20865;-82
2023/03/14 08:31:34;;;;;;;0.98;0.30;;;;;;;;;;5071128;28;20386;-83
2023/03/14 08:34:00;;;;;;;0.75;0.57;;;;;;;;;;5071898;28;20404;-82
2023/03/14 08:36:26;;;;;;;0.75;0.20;;;;;;;;;;5072216;28;20453;-82
2023/03/14 08:38:52;;;;;;;0.57;0.30;;;;;;;;;;5072174;28;20375;-82
2023/03/14 08:41:18;;;;;;;0.63;0.30;;;;;;;;;;5071942;28;20380;-82
2023/03/14 08:43:44;;;;;;;1.17;0.30;;;;;;;;;;5071873;28;20387;-82
2023/03/14 08:46:10;;;;;;;0.82;0.20;;;;;;;;;;5071992;28;20383;-83
2023/03/14 08:48:36;;;;;;;0.82;0.20;;;;;;;;;;5070978;28;20789;-83
2023/03/14 08:51:10;;;;;;;1.00;0.30;;;;;;;;;;5071923;28;20418;-82
2023/03/14 08:53:36;;;;;;;1.35;0.35;;;;;;;;;;5071646;28;20380;-82
2023/03/14 08:56:03;;;;;;;0.90;0.20;;;;;;;;;;5071665;28;20406;-82
2023/03/14 08:58:29;;;;;;;1.15;0.30;;;;;;;;;;5071773;28;20386;-82
2023/03/14 09:00:56;;;;;;;0.63;0.30;;;;;;;;;;5071768;28;20371;-82
2023/03/14 09:03:23;;;;;;;0.17;0.10;;;;;;;;;;5071973;28;20470;-81
2023/03/14 09:05:49;;;;;;;0.28;0.20;;;;;;;;;;5069952;28;20372;-82
2023/03/14 09:08:15;;;;;;;0.73;0.52;;;;;;;;;;5071719;28;21000;-80
2023/03/14 09:10:44;;;;;;;0.20;0.20;;;;;;;;;;5071655;28;20415;-81
2023/03/14 09:13:10;;;;;;;0.63;0.10;;;;;;;;;;5070565;28;20454;-82
2023/03/14 09:15:36;;;;;;;1.13;0.20;;;;;;;;;;5071111;28;20392;-82
2023/03/14 09:18:02;;;;;;;0.20;0.20;;;;;;;;;;5069023;28;20452;-81
2023/03/14 09:20:28;;;;;;;0.20;0.10;;;;;;;;;;5070705;28;20391;-80
2023/03/14 09:22:54;;;;;;;0.30;0.17;;;;;;;;;;5067271;28;20538;-81
2023/03/14 09:25:20;;;;;;;0.47;0.10;;;;;;;;;;5071307;28;20380;-81
2023/03/14 09:27:46;;;;;;;0.60;0.10;;;;;;;;;;5071365;28;20891;-79
2023/03/14 09:30:12;;;;;;;1.10;0.20;;;;;;;;;;5071313;28;20384;-80
2023/03/14 09:32:38;;;;;;;0.50;0.13;;;;;;;;;;5071292;28;20395;-81
2023/03/14 09:35:04;;;;;;;0.20;0.08;;;;;;;;;;5070888;28;20415;-81
2023/03/14 09:37:30;;;;;;;0.30;0.10;;;;;;;;;;5071143;28;20760;-81
2023/03/14 09:39:56;;;;;;;0.40;0.13;;;;;;;;;;5071229;28;20391;-81
2023/03/14 09:42:24;;;;;;;0.70;0.10;;;;;;;;;;5071309;28;20429;-81
2023/03/14 09:44:54;;;;;;;0.40;0.20;;;;;;;;;;5068561;28;20375;-79
2023/03/14 09:47:20;;;;;;;2.22;0.22;;;;;;;;;;5061249;28;20402;-81
2023/03/14 09:49:46;;;;;;;0.30;0.15;;;;;;;;;;5071190;28;20615;-81
2023/03/14 09:52:31;;;;;;;0.60;0.10;;;;;;;;;;5071175;28;20379;-81
2023/03/14 09:54:59;;;;;;;0.32;0.10;;;;;;;;;;5070809;28;20408;-81
2023/03/14 09:57:26;;;;;;;0.50;0.20;;;;;;;;;;5071109;28;20404;-81
2023/03/14 09:59:53;;;;;;;0.47;0.10;;;;;;;;;;5071245;28;20383;-81
2023/03/14 10:02:21;;;;;;;0.52;0.20;;;;;;;;;;5071171;28;20376;-79
2023/03/14 10:04:48;;;;;;;0.28;0.20;;;;;;;;;;5056063;28;20877;-80
2023/03/14 10:07:16;;;;;;;0.68;0.30;;;;;;;;;;5056510;28;20868;-81
2023/03/14 10:09:43;;;;;;;0.10;0.10;;;;;;;;;;5076323;28;20380;-79
2023/03/14 10:12:10;;;;;;;0.50;0.20;;;;;;;;;;5081261;28;20380;-80
2023/03/14 10:14:38;;;;;;;0.45;0.10;;;;;;;;;;5076510;28;20408;-83
2023/03/14 10:17:09;;;;;;;0.40;0.10;;;;;;;;;;5059658;28;20412;-80
2023/03/14 10:19:35;;;;;;;0.30;0.10;;;;;;;;;;5071991;28;20402;-79
2023/03/14 10:22:02;;;;;;;0.30;0.20;;;;;;;;;;5071539;28;20372;-80
2023/03/14 10:24:30;;;;;;;1.13;0.10;;;;;;;;;;5085784;22;20360;-87
2023/03/14 10:27:01;;;;;;;0.20;0.10;;;;;;;;;;5074940;28;20452;-89
2023/03/14 10:29:27;;;;;;;0.95;0.10;;;;;;;;;;5068706;28;20384;-88
2023/03/14 10:31:55;;;;;;;0.50;0.10;;;;;;;;;;5070341;28;20410;-88
2023/03/14 10:34:25;;;;;;;0.20;0.10;;;;;;;;;;5070126;28;20392;-85
2023/03/14 10:36:59;;;;;;;0.10;0.10;;;;;;;;;;5070419;28;20426;-88
2023/03/14 10:39:28;;;;;;;0.60;0.10;;;;;;;;;;5070821;28;20376;-86
2023/03/14 10:41:57;;;;;;;0.20;0.10;;;;;;;;;;5070507;28;20419;-87
2023/03/14 10:44:25;;;;;;;0.30;0.20;;;;;;;;;;5070551;28;20375;-87
2023/03/14 10:46:59;;;;;;;2.20;0.20;;;;;;;;;;5072632;28;20384;-88
2023/03/14 10:49:33;;;;;;;0.30;0.10;;;;;;;;;;5074210;28;20781;-89
2023/03/14 10:52:03;;;;;;;0.63;0.20;;;;;;;;;;5074221;28;20380;-87
2023/03/14 10:54:30;;;;;;;0.45;0.17;;;;;;;;;;5073973;28;20376;-88
2023/03/14 10:56:58;;;;;;;0.20;0.10;;;;;;;;;;5073802;28;20435;-87
2023/03/14 10:59:24;;;;;;;0.60;0.20;;;;;;;;;;5074095;28;20376;-88
2023/03/14 11:01:53;;;;;;;0.30;0.20;;;;;;;;;;5073932;28;20384;-87
2023/03/14 11:04:26;;;;;;;0.30;0.10;;;;;;;;;;5072172;28;20737;-87
2023/03/14 11:06:52;;;;;;;0.00;0.00;;;;;;;;;;5074047;28;20388;-88
2023/03/14 11:09:21;;;;;;;0.20;0.10;;;;;;;;;;5073824;28;20388;-87
2023/03/14 11:11:48;;;;;;;0.30;0.30;;;;;;;;;;5073814;28;20942;-88
2023/03/14 11:14:29;;;;;;;0.30;0.10;;;;;;;;;;5071825;28;20379;-90
2023/03/14 11:17:14;;;;;;;0.30;0.10;;;;;;;;;;5067067;28;20490;-88
2023/03/14 11:19:52;;;;;;;0.10;0.10;;;;;;;;;;5073622;28;20487;-88
2023/03/14 11:22:24;;;;;;;0.40;0.20;;;;;;;;;;5073467;28;20862;-88
2023/03/14 11:24:55;;;;;;;0.28;0.13;;;;;;;;;;5073312;28;20414;-90
2023/03/14 11:27:23;;;;;;;0.50;0.20;;;;;;;;;;5070620;28;20388;-91
2023/03/14 11:29:56;;;;;;;0.20;0.20;;;;;;;;;;5067824;28;20437;-90
2023/03/14 11:32:43;;;;;;;0.20;0.20;;;;;;;;;;5069256;28;20378;-90
2023/03/14 11:35:30;;;;;;;0.40;0.10;;;;;;;;;;5068057;28;20380;-89
2023/03/14 11:38:01;;;;;;;0.40;0.30;;;;;;;;;;5071633;28;20404;-90
2023/03/14 11:40:28;;;;;;;0.73;0.20;;;;;;;;;;5069498;28;20372;-90
2023/03/14 11:43:14;;;;;;;1.10;0.30;;;;;;;;;;5054661;28;20380;-90
2023/03/14 11:45:42;;;;;;;0.50;0.40;;;;;;;;;;5063579;28;20390;-91
2023/03/14 11:48:14;;;;;;;0.47;0.20;;;;;;;;;;5073310;28;20380;-90
2023/03/14 11:50:43;;;;;;;0.40;0.28;;;;;;;;;;5073582;28;20375;-91
2023/03/14 11:53:13;;;;;;;0.77;0.40;;;;;;;;;;5055403;28;20852;-90
2023/03/14 11:55:41;;;;;;;0.60;0.40;;;;;;;;;;5073513;28;20741;-91
2023/03/14 11:58:19;;;;;;;0.60;0.43;;;;;;;;;;5072843;28;20882;-91
2023/03/14 12:00:47;;;;;;;0.35;0.32;;;;;;;;;;5072270;28;20379;-90
2023/03/14 12:03:31;;;;;;;0.60;0.30;;;;;;;;;;5073385;28;20467;-91
2023/03/14 12:06:06;;;;;;;1.05;0.30;;;;;;;;;;5063244;28;20377;-90
2023/03/14 12:08:48;;;;;;;0.30;0.30;;;;;;;;;;5071151;28;20383;-91
2023/03/14 12:11:32;;;;;;;0.30;0.20;;;;;;;;;;5060321;28;20933;-89
2023/03/14 12:13:59;;;;;;;0.35;0.30;;;;;;;;;;5057935;28;20937;-90
2023/03/14 12:16:25;;;;;;;0.80;0.30;;;;;;;;;;5054552;28;20427;-91
2023/03/14 12:18:52;;;;;;;1.50;0.50;;;;;;;;;;5053424;28;20909;-91
2023/03/14 12:21:18;;;;;;;0.40;0.30;;;;;;;;;;5053847;28;20385;-89
2023/03/14 12:23:47;;;;;;;0.70;0.30;;;;;;;;;;5062191;28;20377;-91
2023/03/14 12:26:13;;;;;;;0.40;0.20;;;;;;;;;;5056889;28;20400;-91
2023/03/14 12:28:40;;;;;;;0.60;0.30;;;;;;;;;;5061732;28;20372;-90
2023/03/14 12:31:24;;;;;;;0.30;0.20;;;;;;;;;;5053940;28;20393;-90
2023/03/14 12:34:03;;;;;;;1.52;0.30;;;;;;;;;;5054586;28;20440;-90
2023/03/14 12:36:53;;;;;;;0.30;0.30;;;;;;;;;;5050880;28;20763;-91
2023/03/14 12:39:38;;;;;;;1.03;0.63;;;;;;;;;;5050287;28;20382;-91
2023/03/14 12:42:10;;;;;;;0.63;0.40;;;;;;;;;;5053100;28;20755;-91
2023/03/14 12:44:40;;;;;;;0.70;0.40;;;;;;;;;;5058813;28;20431;-90
2023/03/14 12:47:18;;;;;;;0.60;0.57;;;;;;;;;;5065628;28;20389;-91
2023/03/14 12:49:45;;;;;;;0.45;0.30;;;;;;;;;;5061802;28;20385;-91
2023/03/14 12:52:16;;;;;;;0.52;0.40;;;;;;;;;;5062281;28;20372;-89
2023/03/14 12:54:51;;;;;;;0.82;0.50;;;;;;;;;;5058805;28;20390;-92
2023/03/14 12:57:38;;;;;;;1.20;0.50;;;;;;;;;;5060389;28;20397;-90
2023/03/14 13:00:17;;;;;;;0.70;0.30;;;;;;;;;;5068318;28;20384;-85
2023/03/14 13:02:44;;;;;;;1.40;0.40;;;;;;;;;;5071027;28;20387;-85
2023/03/14 13:05:13;;;;;;;1.27;0.35;;;;;;;;;;5071410;28;20372;-85
2023/03/14 13:07:48;;;;;;;1.40;0.60;;;;;;;;;;5071593;28;20713;-85
2023/03/14 13:10:19;;;;;;;1.10;0.30;;;;;;;;;;5053432;28;20388;-84
2023/03/14 13:13:03;;;;;;;0.80;0.30;;;;;;;;;;5069431;28;20888;-85
2023/03/14 13:15:34;;;;;;;0.57;0.30;;;;;;;;;;5067799;28;20391;-84
2023/03/14 13:18:02;;;;;;;0.20;0.20;;;;;;;;;;5071434;28;20415;-85
2023/03/14 13:20:31;;;;;;;0.45;0.30;;;;;;;;;;5053298;28;20805;-86
2023/03/14 13:22:57;;;;;;;0.20;0.20;;;;;;;;;;5071576;28;20787;-87
2023/03/14 13:25:23;;;;;;;0.40;0.20;;;;;;;;;;5071240;28;20408;-84
2023/03/14 13:27:52;;;;;;;0.10;0.10;;;;;;;;;;5053194;28;20872;-86
2023/03/14 13:30:26;;;;;;;0.55;0.17;;;;;;;;;;5071309;28;20417;-87
2023/03/14 13:32:53;;;;;;;0.20;0.20;;;;;;;;;;5070933;28;20383;-86
2023/03/14 13:35:24;;;;;;;0.90;0.20;;;;;;;;;;5069991;28;20392;-85
2023/03/14 13:38:01;;;;;;;0.50;0.30;;;;;;;;;;5070551;28;20423;-86
2023/03/14 13:40:30;;;;;;;0.40;0.20;;;;;;;;;;5069311;28;20380;-85
2023/03/14 13:43:04;;;;;;;0.40;0.17;;;;;;;;;;5071329;28;20378;-87
2023/03/14 13:45:30;;;;;;;0.30;0.20;;;;;;;;;;5071189;28;20383;-88
2023/03/14 13:47:56;;;;;;;0.70;0.20;;;;;;;;;;5071248;28;20387;-87
2023/03/14 13:50:22;;;;;;;0.65;0.30;;;;;;;;;;5070986;28;20375;-88
2023/03/14 13:52:55;;;;;;;0.60;0.40;;;;;;;;;;5071157;28;20391;-89
2023/03/14 13:55:21;;;;;;;0.70;0.32;;;;;;;;;;5071002;28;20425;-90
2023/03/14 13:57:48;;;;;;;0.80;0.30;;;;;;;;;;5071028;28;20915;-89
2023/03/14 14:00:20;;;;;;;0.40;0.30;;;;;;;;;;5071122;28;20456;-88
2023/03/14 14:02:46;;;;;;;0.32;0.30;;;;;;;;;;5067788;28;20375;-89
2023/03/14 14:05:12;;;;;;;0.57;0.30;;;;;;;;;;5066022;28;20376;-87
2023/03/14 14:07:39;;;;;;;0.80;0.45;;;;;;;;;;5053317;28;20394;-90
2023/03/14 14:10:05;;;;;;;1.52;0.60;;;;;;;;;;5071446;28;20396;-89
2023/03/14 14:12:37;;;;;;;1.05;0.30;;;;;;;;;;5071567;28;20380;-90
2023/03/14 14:15:21;;;;;;;0.95;0.35;;;;;;;;;;5070900;28;20884;-87
2023/03/14 14:17:53;;;;;;;1.27;0.40;;;;;;;;;;5070682;28;20408;-89
2023/03/14 14:20:21;;;;;;;0.80;0.40;;;;;;;;;;5071106;28;20387;-88
2023/03/14 14:22:47;;;;;;;1.35;0.45;;;;;;;;;;5074332;28;20375;-89
2023/03/14 14:25:14;;;;;;;1.83;0.40;;;;;;;;;;5073367;28;20420;-90
2023/03/14 14:27:42;;;;;;;1.17;0.60;;;;;;;;;;5074906;28;20432;-91
2023/03/14 14:30:18;;;;;;;1.23;0.47;;;;;;;;;;5074791;28;20411;-88
2023/03/14 14:32:44;;;;;;;1.27;0.55;;;;;;;;;;5074501;28;20737;-89
2023/03/14 14:35:24;;;;;;;1.58;0.60;;;;;;;;;;5056634;28;20372;-90
2023/03/14 14:37:50;;;;;;;1.10;0.57;;;;;;;;;;5074728;28;20418;-89
2023/03/14 14:40:29;;;;;;;1.38;0.52;;;;;;;;;;5074979;28;20601;-88
2023/03/14 14:43:02;;;;;;;2.25;0.60;;;;;;;;;;5071097;28;20740;-88
2023/03/14 14:45:29;;;;;;;1.30;0.63;;;;;;;;;;5074735;28;20848;-88
2023/03/14 14:47:56;;;;;;;2.53;0.70;;;;;;;;;;5074955;28;20383;-89